Time;durP1;ratioP1;P1;durP2;ratioP2;P2;SDS_P1;SDS_P2;PMS_P1;PMS_P2;Temp;Humidity;BMP_temperature;BMP_pressure;BME280_temperature;BME280_humidity;BME280_pressure;Samples;Min_cycle;Max_cycle;Signal;HPM_P1;HPM_P2
2021/05/18 00:01:48;;;;;;;31.73;7.20;;;11.40;99.90;;;;;;5088396;28;20222;-81
2021/05/18 00:04:14;;;;;;;23.63;6.83;;;11.40;99.90;;;;;;5074026;28;20212;-80
2021/05/18 00:06:41;;;;;;;27.50;7.17;;;11.40;99.90;;;;;;5072885;28;20289;-80
2021/05/18 00:11:53;;;;;;;19.30;7.27;;;11.40;99.90;;;;;;5073257;28;20271;-82
2021/05/18 00:14:24;;;;;;;26.83;7.30;;;11.40;99.90;;;;;;5081742;28;20291;-81
2021/05/18 00:16:52;;;;;;;26.87;7.47;;;11.30;99.90;;;;;;5079429;28;20733;-82
2021/05/18 00:19:19;;;;;;;26.37;7.17;;;11.30;99.90;;;;;;5086939;28;20676;-82
2021/05/18 00:21:46;;;;;;;24.70;7.27;;;11.30;99.90;;;;;;5076569;28;20261;-84
2021/05/18 00:24:14;;;;;;;23.77;7.30;;;11.30;99.90;;;;;;5090660;28;20235;-83
2021/05/18 00:26:40;;;;;;;20.53;7.33;;;11.30;99.90;;;;;;5088053;28;20591;-83
2021/05/18 00:29:07;;;;;;;25.90;7.40;;;11.20;99.90;;;;;;5079194;28;20558;-83
2021/05/18 00:31:35;;;;;;;21.20;7.80;;;11.20;99.90;;;;;;5076366;28;20302;-83
2021/05/18 00:34:01;;;;;;;19.03;7.87;;;11.20;99.90;;;;;;5076184;28;20290;-83
2021/05/18 00:36:27;;;;;;;26.63;8.37;;;11.30;99.90;;;;;;5076449;28;20198;-83
2021/05/18 00:38:54;;;;;;;15.03;6.93;;;11.20;99.90;;;;;;5075776;28;20800;-84
2021/05/18 00:41:21;;;;;;;29.63;7.83;;;11.20;99.90;;;;;;5076338;28;20246;-83
2021/05/18 00:43:48;;;;;;;23.37;7.60;;;11.20;99.90;;;;;;5088800;28;20209;-84
2021/05/18 00:46:14;;;;;;;25.03;7.40;;;11.30;99.90;;;;;;5077398;28;20569;-84
2021/05/18 00:48:56;;;;;;;28.87;8.53;;;11.20;99.90;;;;;;5096707;28;20241;-83
2021/05/18 00:51:23;;;;;;;35.17;8.00;;;11.10;99.90;;;;;;5081637;28;20206;-84
2021/05/18 00:53:52;;;;;;;33.57;9.00;;;11.10;99.90;;;;;;5095715;28;20610;-83
2021/05/18 00:56:32;;;;;;;25.03;8.03;;;11.20;99.90;;;;;;5082478;28;20202;-82
2021/05/18 00:59:01;;;;;;;30.00;8.17;;;11.30;99.90;;;;;;5075552;28;20586;-83
2021/05/18 01:01:28;;;;;;;28.50;8.60;;;11.20;99.90;;;;;;5075189;28;20784;-82
2021/05/18 01:03:55;;;;;;;26.53;8.30;;;11.20;99.90;;;;;;5081777;28;20296;-83
2021/05/18 01:06:28;;;;;;;22.27;8.33;;;11.20;99.90;;;;;;5083213;28;20303;-83
2021/05/18 01:08:56;;;;;;;34.37;9.30;;;11.20;99.90;;;;;;5089796;28;20352;-83
2021/05/18 01:11:25;;;;;;;32.10;9.33;;;11.20;99.90;;;;;;5075418;28;20286;-83
2021/05/18 01:13:55;;;;;;;26.80;8.57;;;11.20;99.90;;;;;;5075100;28;20256;-83
2021/05/18 01:16:24;;;;;;;29.37;8.33;;;11.20;99.90;;;;;;5086089;28;20293;-83
2021/05/18 01:18:51;;;;;;;29.67;9.63;;;11.20;99.90;;;;;;5078206;28;20293;-83
2021/05/18 01:21:18;;;;;;;26.30;9.63;;;11.20;99.90;;;;;;5074759;28;20310;-82
2021/05/18 01:23:45;;;;;;;28.63;9.30;;;11.20;99.90;;;;;;5090296;28;20233;-82
2021/05/18 01:26:14;;;;;;;34.33;10.50;;;11.20;99.90;;;;;;5087818;28;20224;-83
2021/05/18 01:28:41;;;;;;;33.70;9.57;;;11.20;99.90;;;;;;5074551;28;20328;-82
2021/05/18 01:31:09;;;;;;;27.53;10.80;;;11.20;99.90;;;;;;5074766;28;20290;-82
2021/05/18 01:33:36;;;;;;;32.40;10.43;;;11.20;99.90;;;;;;5073951;28;20248;-82
2021/05/18 01:36:04;;;;;;;42.03;10.30;;;11.20;99.90;;;;;;5078903;28;20282;-81
2021/05/18 01:38:37;;;;;;;30.93;9.87;;;11.20;99.90;;;;;;5083582;28;20555;-82
2021/05/18 01:43:52;;;;;;;33.03;10.13;;;11.30;99.90;;;;;;5082536;28;20213;-82
2021/05/18 01:46:22;;;;;;;40.63;11.03;;;11.30;99.90;;;;;;5075196;28;20209;-81
2021/05/18 01:48:57;;;;;;;24.93;10.43;;;11.40;99.90;;;;;;5095105;28;20209;-82
2021/05/18 01:51:26;;;;;;;36.80;10.80;;;11.30;99.90;;;;;;5079070;28;20206;-83
2021/05/18 01:53:54;;;;;;;30.57;10.50;;;11.30;99.90;;;;;;5074365;28;20210;-81
2021/05/18 01:56:35;;;;;;;27.33;9.97;;;11.30;99.90;;;;;;5088429;28;20212;-83
2021/05/18 01:59:07;;;;;;;33.00;10.30;;;11.30;99.90;;;;;;5074301;28;20209;-82
2021/05/18 02:01:33;;;;;;;34.97;10.60;;;11.30;99.90;;;;;;5073872;28;20232;-82
2021/05/18 02:04:00;;;;;;;31.00;9.40;;;11.30;99.90;;;;;;5074006;28;20203;-82
2021/05/18 02:06:28;;;;;;;37.53;9.83;;;11.30;99.90;;;;;;5074349;28;20211;-83
2021/05/18 02:08:55;;;;;;;32.63;10.47;;;11.30;99.90;;;;;;5093168;28;20285;-82
2021/05/18 02:11:22;;;;;;;37.97;10.17;;;11.30;99.90;;;;;;5083170;28;20305;-82
2021/05/18 02:13:50;;;;;;;28.20;10.33;;;11.30;99.90;;;;;;5073775;28;20297;-81
2021/05/18 02:16:20;;;;;;;35.50;10.50;;;11.30;99.90;;;;;;5074252;28;20210;-83
2021/05/18 02:19:03;;;;;;;36.10;9.53;;;11.30;99.90;;;;;;5076291;28;20567;-81
2021/05/18 02:26:55;;;;;;;32.00;9.97;;;11.30;99.90;;;;;;5073772;28;20213;-82
2021/05/18 02:29:22;;;;;;;38.17;10.47;;;11.30;99.90;;;;;;5087944;28;20206;-83
2021/05/18 02:31:49;;;;;;;30.83;11.20;;;11.30;99.90;;;;;;5073328;28;20683;-83
2021/05/18 02:34:16;;;;;;;39.47;10.53;;;11.20;99.90;;;;;;5077078;28;20241;-82
2021/05/18 02:36:42;;;;;;;43.90;10.77;;;11.20;99.90;;;;;;5094064;28;20284;-82
2021/05/18 02:39:09;;;;;;;27.17;10.53;;;11.10;99.90;;;;;;5079635;28;20234;-82
2021/05/18 02:41:36;;;;;;;35.50;11.77;;;11.20;99.90;;;;;;5085437;28;20240;-82
2021/05/18 02:44:06;;;;;;;32.60;10.97;;;11.10;99.90;;;;;;5072937;28;20234;-81
2021/05/18 02:49:17;;;;;;;36.07;9.93;;;11.10;99.90;;;;;;5082086;28;20289;-82
2021/05/18 02:51:46;;;;;;;40.03;10.90;;;10.90;99.90;;;;;;5091141;28;20208;-81
2021/05/18 02:54:16;;;;;;;41.27;11.40;;;11.10;99.90;;;;;;5093273;28;20201;-81
2021/05/18 02:56:46;;;;;;;40.13;12.43;;;11.20;99.90;;;;;;5093720;28;20198;-82
2021/05/18 02:59:16;;;;;;;32.10;11.17;;;11.20;99.90;;;;;;5093197;28;20236;-82
2021/05/18 03:01:44;;;;;;;34.67;11.47;;;11.20;99.90;;;;;;5093442;28;20323;-83
2021/05/18 03:04:11;;;;;;;41.07;11.57;;;11.20;99.90;;;;;;5093305;28;20292;-83
2021/05/18 03:06:37;;;;;;;37.23;11.17;;;11.20;99.90;;;;;;5093157;28;20258;-82
2021/05/18 03:09:09;;;;;;;34.40;10.53;;;11.20;99.90;;;;;;5093251;28;20203;-82
2021/05/18 03:11:36;;;;;;;39.77;11.47;;;11.30;99.90;;;;;;5093427;28;20263;-83
2021/05/18 03:14:04;;;;;;;39.67;11.23;;;11.20;99.90;;;;;;5093087;28;20316;-81
2021/05/18 03:16:31;;;;;;;29.63;10.90;;;11.20;99.90;;;;;;5093105;28;20196;-83
2021/05/18 03:18:57;;;;;;;44.53;11.73;;;11.10;99.90;;;;;;5092985;28;20225;-83
2021/05/18 03:21:24;;;;;;;34.37;12.20;;;11.00;99.90;;;;;;5092564;28;20262;-82
2021/05/18 03:23:50;;;;;;;43.47;11.23;;;10.90;99.90;;;;;;5093340;28;20300;-83
2021/05/18 03:26:17;;;;;;;40.50;12.47;;;10.80;99.90;;;;;;5093127;28;20204;-82
2021/05/18 03:28:43;;;;;;;33.93;11.53;;;10.80;99.90;;;;;;5092840;28;20587;-83
2021/05/18 03:34:26;;;;;;;39.37;12.90;;;10.90;99.90;;;;;;5092717;28;20676;-82
2021/05/18 03:36:44;;;;;;;43.33;11.73;;;10.80;99.90;;;;;;5092635;28;20227;-83
2021/05/18 03:39:11;;;;;;;36.00;13.60;;;10.80;99.90;;;;;;5092846;28;20609;-81
2021/05/18 03:41:49;;;;;;;43.63;12.40;;;10.70;99.90;;;;;;5092375;28;20568;-83
2021/05/18 03:44:21;;;;;;;37.97;13.20;;;10.80;99.90;;;;;;5093055;28;20205;-82
2021/05/18 03:52:24;;;;;;;44.30;13.20;;;10.70;99.90;;;;;;5093161;28;20774;-84
2021/05/18 04:03:07;;;;;;;39.17;13.43;;;10.80;99.90;;;;;;5096803;28;20721;-82
2021/05/18 04:11:48;;;;;;;36.17;12.50;;;11.00;99.90;;;;;;5096814;28;20202;-83
2021/05/18 04:16:59;;;;;;;42.67;13.73;;;11.00;99.90;;;;;;5055167;28;20240;-82
2021/05/18 04:19:34;;;;;;;38.00;11.77;;;11.00;99.90;;;;;;5096449;28;20228;-82
2021/05/18 04:22:16;;;;;;;37.00;11.57;;;11.00;99.90;;;;;;5096496;28;20226;-83
2021/05/18 04:25:12;;;;;;;29.63;11.17;;;11.00;99.90;;;;;;5096820;28;20617;-82
2021/05/18 04:38:50;;;;;;;32.63;10.37;;;11.20;99.90;;;;;;5096146;28;20224;-82
2021/05/18 04:52:28;;;;;;;30.53;10.23;;;11.30;99.90;;;;;;5088213;28;20237;-82
2021/05/18 05:00:46;;;;;;;33.53;10.17;;;11.40;99.90;;;;;;5071151;28;20206;-82
2021/05/18 05:09:00;;;;;;;29.97;9.70;;;11.70;99.90;;;;;;5079747;28;20613;-80
2021/05/18 05:14:20;;;;;;;20.33;8.30;;;12.10;99.90;;;;;;5074217;28;20256;-83
2021/05/18 05:16:46;;;;;;;26.67;8.70;;;12.10;99.90;;;;;;5076273;28;20603;-83
2021/05/18 05:19:13;;;;;;;23.70;8.57;;;12.20;99.90;;;;;;5091248;28;20293;-82
2021/05/18 05:21:39;;;;;;;32.50;9.07;;;12.30;99.90;;;;;;5091931;28;20215;-82
2021/05/18 05:24:08;;;;;;;19.33;8.40;;;12.30;99.90;;;;;;5075007;28;20203;-83
2021/05/18 05:26:35;;;;;;;24.20;8.17;;;12.20;99.90;;;;;;5074896;28;20250;-83
2021/05/18 05:29:03;;;;;;;20.07;8.13;;;12.20;99.90;;;;;;5093783;28;20383;-83
2021/05/18 05:31:29;;;;;;;18.43;7.50;;;12.10;99.90;;;;;;5091275;28;20198;-83
2021/05/18 05:33:55;;;;;;;18.07;7.90;;;12.10;99.90;;;;;;5094224;28;20203;-82
2021/05/18 05:36:22;;;;;;;22.43;8.27;;;12.10;99.90;;;;;;5093899;28;20212;-82
2021/05/18 05:38:49;;;;;;;20.40;7.37;;;12.20;99.90;;;;;;5093379;28;20199;-82
2021/05/18 05:41:18;;;;;;;20.27;7.57;;;12.40;99.90;;;;;;5093774;28;20612;-83
2021/05/18 05:43:44;;;;;;;19.83;7.20;;;12.60;99.90;;;;;;5094430;28;20199;-83
2021/05/18 05:46:10;;;;;;;13.37;5.70;;;13.30;99.90;;;;;;5093727;28;20570;-84
2021/05/18 05:48:37;;;;;;;15.50;5.60;;;15.00;99.90;;;;;;5093088;28;20748;-79
2021/05/18 05:51:04;;;;;;;11.73;5.00;;;16.50;99.90;;;;;;5094200;28;20211;-83
2021/05/18 05:53:31;;;;;;;13.90;5.10;;;16.80;99.90;;;;;;5093840;28;20203;-83
2021/05/18 05:56:04;;;;;;;13.93;5.10;;;16.60;99.90;;;;;;5095125;28;20210;-86
2021/05/18 05:58:31;;;;;;;12.97;4.67;;;16.10;99.90;;;;;;5094275;28;20282;-84
2021/05/18 06:00:59;;;;;;;10.93;5.10;;;15.50;99.90;;;;;;5094527;28;20242;-83
2021/05/18 06:03:25;;;;;;;13.67;4.87;;;15.00;99.90;;;;;;5094626;28;20219;-84
2021/05/18 06:05:52;;;;;;;12.30;5.37;;;14.80;99.90;;;;;;5094699;28;20228;-84
2021/05/18 06:08:18;;;;;;;14.73;4.57;;;14.80;99.90;;;;;;5094044;28;20199;-84
2021/05/18 06:10:47;;;;;;;8.87;4.40;;;14.40;99.90;;;;;;5094479;28;20208;-83
2021/05/18 06:13:34;;;;;;;12.43;4.43;;;14.20;99.90;;;;;;5093337;28;20206;-85
2021/05/18 06:33:59;;;;;;;6.90;4.57;;;15.40;99.90;;;;;;5094295;28;20191;-85
2021/05/18 06:43:49;;;;;;;8.77;3.83;;;14.30;99.90;;;;;;5093797;28;20228;-84
2021/05/18 06:46:22;;;;;;;10.03;4.00;;;14.20;99.90;;;;;;5094621;28;20790;-84
2021/05/18 06:48:56;;;;;;;11.43;4.10;;;14.00;99.90;;;;;;5094620;28;20668;-83
2021/05/18 06:51:23;;;;;;;9.27;3.83;;;14.00;99.90;;;;;;5094602;28;20665;-84
2021/05/18 06:53:49;;;;;;;11.63;4.13;;;14.10;99.90;;;;;;5094086;28;20206;-83
2021/05/18 06:56:16;;;;;;;5.10;3.27;;;14.20;99.90;;;;;;5081362;28;20211;-85
2021/05/18 07:01:26;;;;;;;8.60;3.73;;;14.30;99.90;;;;;;5044823;28;20223;-84
2021/05/18 07:03:55;;;;;;;9.00;3.40;;;14.10;99.90;;;;;;5075485;28;20298;-83
2021/05/18 07:06:35;;;;;;;9.37;3.60;;;14.20;99.90;;;;;;5076523;28;20233;-83
2021/05/18 07:09:01;;;;;;;9.70;4.57;;;14.20;99.90;;;;;;5075586;28;20317;-84
2021/05/18 07:11:29;;;;;;;10.60;3.63;;;14.30;99.90;;;;;;5076187;28;20630;-85
2021/05/18 07:13:55;;;;;;;8.03;4.03;;;14.20;99.90;;;;;;5075319;28;20216;-82
2021/05/18 07:16:22;;;;;;;10.50;3.93;;;14.10;99.90;;;;;;5075315;28;20196;-83
2021/05/18 07:18:49;;;;;;;11.43;3.80;;;14.20;99.90;;;;;;5075102;28;20284;-83
2021/05/18 07:21:17;;;;;;;9.90;3.73;;;14.30;99.90;;;;;;5074390;28;20599;-84
2021/05/18 07:23:44;;;;;;;8.50;4.03;;;14.30;99.90;;;;;;5075568;28;20222;-83
2021/05/18 07:26:10;;;;;;;9.43;4.63;;;14.40;99.90;;;;;;5074983;28;20704;-83
2021/05/18 07:28:36;;;;;;;8.97;4.50;;;14.40;99.90;;;;;;5073826;28;20199;-83
2021/05/18 07:31:05;;;;;;;14.00;5.30;;;14.30;99.90;;;;;;5073398;28;20227;-83
2021/05/18 07:33:32;;;;;;;11.97;5.40;;;14.00;99.90;;;;;;5074555;28;20203;-84
2021/05/18 07:36:02;;;;;;;11.60;5.13;;;14.10;99.90;;;;;;5074233;28;20207;-83
2021/05/18 07:38:30;;;;;;;14.73;5.30;;;14.80;99.90;;;;;;5073781;28;20744;-84
2021/05/18 07:40:56;;;;;;;9.87;5.00;;;15.60;99.90;;;;;;5074082;28;20218;-84
2021/05/18 07:43:23;;;;;;;11.03;4.63;;;16.80;99.90;;;;;;5074061;28;20638;-83
2021/05/18 07:45:53;;;;;;;9.80;5.83;;;18.30;99.90;;;;;;5073813;28;20290;-84
2021/05/18 07:48:24;;;;;;;10.73;5.33;;;18.60;99.90;;;;;;5076121;28;20233;-84
2021/05/18 07:50:59;;;;;;;10.67;6.07;;;18.50;99.90;;;;;;5074382;28;20195;-84
2021/05/18 08:07:07;;;;;;;7.20;6.40;;;17.40;99.90;;;;;;5072682;28;20282;-83
2021/05/18 08:09:39;;;;;;;13.50;7.87;;;17.50;99.90;;;;;;5072568;28;20629;-84
2021/05/18 08:12:07;;;;;;;8.53;7.13;;;18.20;99.90;;;;;;5072974;28;20203;-83
2021/05/18 08:14:36;;;;;;;11.50;7.37;;;19.10;99.90;;;;;;5072724;28;20215;-85
2021/05/18 08:17:12;;;;;;;10.67;7.23;;;20.90;99.90;;;;;;5073271;28;20226;-83
2021/05/18 09:43:54;;;;;;;4.78;2.60;;;28.20;99.90;;;;;;5074685;28;20730;-82
2021/05/18 10:35:52;;;;;;;2.70;2.22;;;20.80;99.90;;;;;;5073592;28;20301;-81
2021/05/18 10:38:22;;;;;;;2.33;1.90;;;20.80;99.90;;;;;;5074044;28;20481;-83
2021/05/18 10:40:49;;;;;;;3.42;1.95;;;22.30;99.90;;;;;;5073701;28;20196;-83
2021/05/18 10:43:26;;;;;;;3.22;2.10;;;22.70;99.90;;;;;;5073537;28;20227;-82
2021/05/18 10:46:10;;;;;;;3.35;2.20;;;23.60;99.90;;;;;;5073843;28;20650;-82
2021/05/18 10:49:00;;;;;;;3.60;2.20;;;22.40;99.90;;;;;;5073962;28;20211;-82
2021/05/18 10:51:52;;;;;;;3.07;2.30;;;21.50;99.90;;;;;;5073834;28;20234;-83
2021/05/18 10:54:24;;;;;;;2.93;2.07;;;21.30;99.90;;;;;;5066819;28;20291;-83
2021/05/18 10:57:03;;;;;;;4.73;1.93;;;22.10;99.90;;;;;;5077387;28;20200;-81
2021/05/18 10:59:32;;;;;;;3.00;2.10;;;22.40;99.90;;;;;;5080739;28;20602;-84
2021/05/18 11:02:00;;;;;;;4.03;2.10;;;22.00;99.90;;;;;;5073728;28;20314;-81
2021/05/18 11:04:27;;;;;;;3.58;2.17;;;22.30;99.90;;;;;;5073430;28;20666;-84
2021/05/18 11:06:55;;;;;;;2.50;1.85;;;22.30;99.90;;;;;;5073364;28;20200;-84
2021/05/18 11:09:23;;;;;;;2.65;1.75;;;22.30;99.90;;;;;;5073265;28;20227;-81
2021/05/18 11:11:56;;;;;;;4.07;2.22;;;24.00;99.90;;;;;;5073347;28;20222;-81
2021/05/18 11:14:36;;;;;;;4.75;1.95;;;24.80;99.90;;;;;;5073232;28;20206;-81
2021/05/18 11:17:15;;;;;;;2.47;2.03;;;25.20;99.90;;;;;;5073459;28;20211;-83
2021/05/18 11:25:40;;;;;;;3.35;2.20;;;24.00;99.90;;;;;;5073165;28;20219;-82
2021/05/18 11:28:12;;;;;;;3.25;2.00;;;22.40;99.90;;;;;;5072898;28;20637;-82
2021/05/18 11:30:40;;;;;;;3.35;2.22;;;21.50;99.90;;;;;;5072786;28;20195;-83
2021/05/18 11:33:07;;;;;;;4.25;2.13;;;21.40;99.90;;;;;;5072857;28;20211;-83
2021/05/18 11:35:34;;;;;;;4.65;2.20;;;21.80;99.90;;;;;;5072645;28;20560;-83
2021/05/18 11:38:04;;;;;;;1.90;1.80;;;21.40;99.90;;;;;;5072988;28;20332;-82
2021/05/18 11:40:38;;;;;;;12.85;2.83;;;21.30;99.90;;;;;;5072976;28;20207;-83
2021/05/18 11:43:22;;;;;;;6.68;1.85;;;20.80;99.90;;;;;;5072685;28;20313;-82
2021/05/18 11:45:52;;;;;;;1.98;1.23;;;20.70;99.90;;;;;;5073105;28;20721;-82
2021/05/18 11:48:20;;;;;;;3.60;1.50;;;21.70;99.90;;;;;;5072638;28;20246;-82
2021/05/18 11:51:00;;;;;;;6.32;1.63;;;22.90;99.90;;;;;;5072814;28;20290;-83
2021/05/18 11:53:39;;;;;;;2.75;1.30;;;22.90;99.90;;;;;;5072518;28;20397;-82
2021/05/18 11:56:26;;;;;;;3.05;1.30;;;22.20;99.90;;;;;;5072616;28;20203;-83
2021/05/18 11:59:01;;;;;;;2.72;1.60;;;21.90;99.90;;;;;;5072908;28;20578;-83
2021/05/18 12:01:29;;;;;;;2.58;1.65;;;21.60;99.90;;;;;;5072589;28;20297;-81
2021/05/18 12:04:06;;;;;;;3.28;1.75;;;21.70;99.90;;;;;;5072316;28;20863;-82
2021/05/18 12:06:39;;;;;;;3.53;1.67;;;21.40;99.90;;;;;;5072329;28;20675;-82
2021/05/18 12:09:06;;;;;;;2.13;1.75;;;22.30;99.90;;;;;;5072640;28;20199;-81
2021/05/18 12:11:33;;;;;;;3.15;1.63;;;23.40;99.90;;;;;;5072231;28;20248;-81
2021/05/18 12:14:00;;;;;;;1.95;1.45;;;23.70;99.90;;;;;;5072161;28;20238;-81
2021/05/18 12:16:28;;;;;;;2.72;1.65;;;23.00;99.90;;;;;;5073415;28;20199;-82
2021/05/18 12:18:56;;;;;;;7.82;1.90;;;23.20;99.90;;;;;;5076380;28;20654;-81
2021/05/18 12:21:25;;;;;;;3.95;1.50;;;23.50;99.90;;;;;;5076122;28;20733;-81
2021/05/18 12:24:07;;;;;;;1.58;1.20;;;23.10;99.90;;;;;;5075971;28;20207;-82
2021/05/18 12:26:35;;;;;;;2.38;1.38;;;22.20;99.90;;;;;;5076187;28;20345;-81
2021/05/18 12:29:03;;;;;;;3.42;1.60;;;21.90;99.90;;;;;;5076368;28;20219;-82
2021/05/18 12:31:33;;;;;;;2.00;1.20;;;21.90;99.90;;;;;;5076118;28;20254;-82
2021/05/18 12:34:00;;;;;;;7.20;2.35;;;22.00;99.90;;;;;;5076249;28;20196;-81
2021/05/18 12:36:28;;;;;;;2.65;1.42;;;22.50;99.90;;;;;;5075980;28;20244;-82
2021/05/18 12:39:12;;;;;;;2.22;1.17;;;22.60;99.90;;;;;;5076039;28;20196;-81
2021/05/18 12:42:06;;;;;;;2.53;1.17;;;22.50;99.90;;;;;;5075839;28;20219;-81
2021/05/18 12:44:35;;;;;;;2.22;1.00;;;23.00;99.90;;;;;;5040194;28;20196;-81
2021/05/18 12:47:06;;;;;;;1.92;1.10;;;23.10;99.90;;;;;;5075951;28;20203;-81
2021/05/18 12:49:36;;;;;;;2.95;1.30;;;23.40;99.90;;;;;;5075594;28;20654;-81
2021/05/18 12:52:11;;;;;;;3.05;1.20;;;23.10;99.90;;;;;;5075464;28;20543;-82
2021/05/18 12:54:52;;;;;;;1.65;1.15;;;23.90;99.90;;;;;;5075950;28;20203;-80
2021/05/18 12:57:21;;;;;;;2.33;1.20;;;24.40;99.90;;;;;;5075390;28;20214;-83
2021/05/18 13:00:08;;;;;;;2.42;1.00;;;24.70;99.90;;;;;;5075178;28;20598;-81
2021/05/18 13:02:38;;;;;;;2.25;1.10;;;24.60;99.90;;;;;;5081724;28;20214;-81
2021/05/18 13:05:17;;;;;;;1.90;1.20;;;23.80;99.90;;;;;;5092791;28;20191;-81
2021/05/18 13:08:02;;;;;;;1.55;1.10;;;23.20;99.90;;;;;;5078682;28;20717;-81
2021/05/18 13:10:38;;;;;;;2.35;1.20;;;22.10;99.90;;;;;;5074814;28;20728;-80
2021/05/18 13:13:05;;;;;;;7.18;1.30;;;22.30;99.90;;;;;;5076991;28;20229;-81
2021/05/18 13:15:32;;;;;;;2.08;1.20;;;21.50;99.90;;;;;;5083735;28;20198;-82
2021/05/18 13:18:01;;;;;;;4.47;1.27;;;21.30;99.90;;;;;;5095045;28;20366;-81
2021/05/18 13:20:47;;;;;;;2.47;1.25;;;20.90;99.90;;;;;;5095640;28;20282;-83
2021/05/18 13:23:25;;;;;;;1.80;1.07;;;21.40;99.90;;;;;;5095347;28;20233;-81
2021/05/18 13:28:37;;;;;;;1.83;1.67;;;21.30;99.90;;;;;;5094094;28;20202;-80
2021/05/18 13:31:04;;;;;;;4.10;1.73;;;21.20;99.90;;;;;;5095162;28;20660;-80
2021/05/18 13:33:31;;;;;;;5.25;1.95;;;20.70;99.90;;;;;;5095008;28;20570;-81
2021/05/18 13:35:57;;;;;;;2.57;1.50;;;20.20;99.90;;;;;;5094968;28;20618;-82
2021/05/18 13:38:24;;;;;;;3.03;1.50;;;20.10;99.90;;;;;;5094903;28;20243;-81
2021/05/18 13:40:51;;;;;;;4.10;1.53;;;20.50;99.90;;;;;;5094787;28;20202;-78
2021/05/18 13:43:17;;;;;;;2.30;1.37;;;21.10;99.90;;;;;;5095019;28;20230;-81
2021/05/18 13:45:44;;;;;;;4.97;1.40;;;20.60;99.90;;;;;;5094570;28;20211;-82
2021/05/18 13:48:10;;;;;;;1.97;1.40;;;19.70;99.90;;;;;;5094750;28;20217;-78
2021/05/18 13:50:38;;;;;;;2.90;1.50;;;20.00;99.90;;;;;;5094939;28;20393;-81
2021/05/18 13:53:06;;;;;;;2.67;1.60;;;20.20;99.90;;;;;;5094667;28;20191;-78
2021/05/18 13:55:33;;;;;;;2.10;1.53;;;20.10;99.90;;;;;;5094587;28;20556;-78
2021/05/18 13:58:00;;;;;;;4.20;1.60;;;19.20;99.90;;;;;;5094795;28;20245;-80
2021/05/18 14:00:27;;;;;;;2.43;1.30;;;19.10;99.90;;;;;;5094805;28;20572;-78
2021/05/18 14:02:54;;;;;;;3.13;1.40;;;18.80;99.90;;;;;;5094298;28;20268;-80
2021/05/18 14:05:24;;;;;;;2.63;1.20;;;18.30;99.90;;;;;;5094493;28;20281;-80
2021/05/18 14:08:19;;;;;;;2.47;1.30;;;18.60;99.90;;;;;;5094490;28;20338;-79
2021/05/18 14:10:45;;;;;;;3.70;1.40;;;18.90;99.90;;;;;;5094514;28;20199;-79
2021/05/18 14:13:12;;;;;;;2.60;1.33;;;18.70;99.90;;;;;;5094703;28;20292;-80
2021/05/18 14:15:39;;;;;;;3.47;1.30;;;18.40;99.90;;;;;;5094340;28;20201;-78
2021/05/18 14:18:06;;;;;;;2.00;1.00;;;18.50;99.90;;;;;;5094164;28;20194;-78
2021/05/18 14:20:32;;;;;;;3.37;1.27;;;18.60;99.90;;;;;;5094255;28;20285;-80
2021/05/18 14:22:58;;;;;;;5.30;1.50;;;18.70;99.90;;;;;;5094181;28;20223;-78
2021/05/18 14:25:26;;;;;;;2.10;1.20;;;18.90;99.90;;;;;;5094178;28;20290;-80
2021/05/18 14:27:52;;;;;;;1.67;1.13;;;18.80;99.90;;;;;;5095909;28;20237;-78
2021/05/18 14:30:19;;;;;;;3.07;0.90;;;18.80;99.90;;;;;;5098239;28;20199;-80
2021/05/18 14:32:45;;;;;;;2.87;1.50;;;19.10;99.90;;;;;;5095908;28;20668;-81
2021/05/18 14:35:13;;;;;;;2.97;1.07;;;19.10;99.90;;;;;;5096874;28;20227;-78
2021/05/18 14:37:41;;;;;;;5.50;2.43;;;19.20;99.90;;;;;;5094426;28;20279;-78
2021/05/18 14:40:21;;;;;;;1.83;1.00;;;18.90;99.90;;;;;;5093718;28;20646;-80
2021/05/18 14:42:53;;;;;;;1.90;0.90;;;18.70;99.90;;;;;;5094530;28;20275;-75
2021/05/18 14:45:24;;;;;;;3.37;1.23;;;18.90;99.90;;;;;;5092551;28;20234;-81
2021/05/18 14:48:06;;;;;;;1.40;1.00;;;19.00;99.90;;;;;;5093837;28;20240;-77
2021/05/18 14:56:06;;;;;;;2.23;1.40;;;18.70;99.90;;;;;;5094140;28;20575;-78
2021/05/18 14:58:34;;;;;;;4.77;1.20;;;18.50;99.90;;;;;;5095058;28;20274;-78
2021/05/18 15:01:00;;;;;;;1.00;0.90;;;18.20;99.90;;;;;;5095203;28;20274;-78
2021/05/18 15:03:31;;;;;;;1.73;0.90;;;18.50;99.90;;;;;;5094708;28;20684;-78
2021/05/18 15:05:58;;;;;;;1.03;0.90;;;18.40;99.90;;;;;;5092879;28;20649;-80
2021/05/18 15:08:24;;;;;;;3.10;1.03;;;18.70;99.90;;;;;;5093086;28;20195;-77
2021/05/18 15:10:53;;;;;;;1.87;1.17;;;18.90;99.90;;;;;;5093703;28;20360;-77
2021/05/18 15:13:19;;;;;;;1.50;1.00;;;18.70;99.90;;;;;;5090877;28;20199;-77
2021/05/18 15:15:47;;;;;;;1.37;0.80;;;18.90;99.90;;;;;;5090350;28;20596;-79
2021/05/18 15:18:14;;;;;;;1.13;0.97;;;19.00;99.90;;;;;;5080266;28;20199;-77
2021/05/18 15:20:42;;;;;;;2.33;1.20;;;19.20;99.90;;;;;;5079323;28;20208;-77
2021/05/18 15:23:09;;;;;;;2.70;1.20;;;19.10;99.90;;;;;;5077033;28;20212;-80
2021/05/18 15:25:35;;;;;;;4.57;1.17;;;19.10;99.90;;;;;;5078714;28;20195;-77
2021/05/18 15:28:01;;;;;;;1.60;1.13;;;19.20;99.90;;;;;;5078802;28;20396;-80
2021/05/18 15:30:28;;;;;;;2.40;1.30;;;18.90;99.90;;;;;;5078251;28;20217;-78
2021/05/18 15:32:55;;;;;;;1.50;0.97;;;18.70;99.90;;;;;;5082912;28;20282;-78
2021/05/18 15:35:21;;;;;;;3.37;1.10;;;18.50;99.90;;;;;;5075325;28;20349;-77
2021/05/18 15:37:48;;;;;;;2.60;1.30;;;18.30;99.90;;;;;;5078855;28;20206;-78
2021/05/18 15:40:15;;;;;;;1.40;0.97;;;18.40;99.90;;;;;;5076739;28;20192;-82
2021/05/18 15:42:41;;;;;;;3.13;1.30;;;18.50;99.90;;;;;;5075452;28;20314;-77
2021/05/18 15:45:09;;;;;;;2.63;1.10;;;18.50;99.90;;;;;;5074543;28;20504;-81
2021/05/18 15:47:36;;;;;;;1.30;1.00;;;18.30;99.90;;;;;;5078387;28;20216;-81
2021/05/18 15:50:04;;;;;;;7.77;1.07;;;18.40;99.90;;;;;;5078189;28;20196;-77
2021/05/18 15:52:30;;;;;;;1.53;0.90;;;18.50;99.90;;;;;;5075793;28;20257;-81
2021/05/18 15:54:57;;;;;;;6.27;1.40;;;18.30;99.90;;;;;;5083572;28;20259;-77
2021/05/18 15:57:23;;;;;;;1.63;1.30;;;18.50;99.90;;;;;;5080609;28;20282;-79
2021/05/18 15:59:50;;;;;;;4.63;1.53;;;18.50;99.90;;;;;;5076000;28;20690;-78
2021/05/18 16:02:17;;;;;;;4.03;1.40;;;18.50;99.90;;;;;;5071993;28;20720;-78
2021/05/18 16:04:44;;;;;;;3.17;0.90;;;18.50;99.90;;;;;;5079412;28;20689;-78
2021/05/18 16:07:13;;;;;;;2.77;1.00;;;18.60;99.90;;;;;;5085869;28;20291;-78
2021/05/18 16:09:40;;;;;;;1.90;1.00;;;18.70;99.90;;;;;;5079123;28;20202;-78
2021/05/18 16:12:07;;;;;;;1.80;1.30;;;18.50;99.90;;;;;;5080758;28;20299;-79
2021/05/18 16:14:34;;;;;;;2.47;1.40;;;18.50;99.90;;;;;;5075268;28;20731;-81
2021/05/18 16:17:00;;;;;;;2.17;1.43;;;18.90;99.90;;;;;;5077065;28;20290;-80
2021/05/18 16:19:27;;;;;;;3.67;1.50;;;19.00;99.90;;;;;;5076777;28;20200;-79
2021/05/18 16:21:53;;;;;;;2.60;1.30;;;19.00;99.90;;;;;;5087314;28;20201;-77
2021/05/18 16:24:22;;;;;;;2.37;1.30;;;19.00;99.90;;;;;;5076921;28;20290;-78
2021/05/18 16:26:50;;;;;;;2.17;1.60;;;19.10;99.90;;;;;;5077631;28;20222;-77
2021/05/18 16:29:16;;;;;;;2.90;1.40;;;19.20;99.90;;;;;;5067818;28;20214;-79
2021/05/18 16:31:43;;;;;;;2.13;1.30;;;19.30;99.90;;;;;;5080573;28;20288;-79
2021/05/18 16:34:09;;;;;;;1.53;1.33;;;18.90;99.90;;;;;;5074936;28;20209;-77
2021/05/18 16:36:36;;;;;;;2.53;1.03;;;18.60;99.90;;;;;;5074951;28;20275;-79
2021/05/18 16:39:03;;;;;;;3.03;1.20;;;18.50;99.90;;;;;;5084015;28;20206;-78
2021/05/18 16:41:31;;;;;;;2.70;1.20;;;18.60;99.90;;;;;;5075833;28;20534;-76
2021/05/18 16:43:57;;;;;;;2.03;1.20;;;18.20;99.90;;;;;;5074223;28;20223;-80
2021/05/18 16:46:24;;;;;;;2.50;1.40;;;18.50;99.90;;;;;;5079230;28;20746;-77
2021/05/18 16:48:50;;;;;;;2.57;1.30;;;18.80;99.90;;;;;;5075527;28;20199;-79
2021/05/18 16:51:17;;;;;;;1.70;1.20;;;18.90;99.90;;;;;;5080882;28;20657;-78
2021/05/18 16:53:44;;;;;;;1.87;1.50;;;18.90;99.90;;;;;;5081154;28;20203;-78
2021/05/18 16:56:11;;;;;;;2.93;1.30;;;18.80;99.90;;;;;;5078426;28;20290;-77
2021/05/18 16:58:38;;;;;;;2.30;1.47;;;18.90;99.90;;;;;;5077661;28;20204;-77
2021/05/18 17:01:04;;;;;;;2.00;1.23;;;18.80;99.90;;;;;;5082621;28;20206;-77
2021/05/18 17:03:31;;;;;;;1.80;1.43;;;18.70;99.90;;;;;;5091974;28;20214;-77
2021/05/18 17:05:59;;;;;;;2.00;1.30;;;18.80;99.90;;;;;;5093375;28;20223;-79
2021/05/18 17:08:26;;;;;;;4.37;1.23;;;18.90;99.90;;;;;;5085087;28;20203;-77
2021/05/18 17:10:52;;;;;;;3.37;1.13;;;18.60;99.90;;;;;;5093052;28;20194;-77
2021/05/18 17:13:18;;;;;;;2.60;1.40;;;18.40;99.90;;;;;;5094071;28;20211;-80
2021/05/18 17:15:46;;;;;;;1.97;1.30;;;18.20;99.90;;;;;;5071551;28;20187;-78
2021/05/18 17:18:12;;;;;;;1.67;1.40;;;18.30;99.90;;;;;;5086843;28;20309;-77